createdAt,value
2023-04-02T00:01:07.514Z,12.43
2023-04-02T00:04:14.816Z,13.45
2023-04-02T00:06:47.059Z,12.52
2023-04-02T00:09:34.624Z,14.10
2023-04-02T00:12:17.053Z,13.07
2023-04-02T00:14:58.199Z,13.32
2023-04-02T00:17:27.048Z,13.55
2023-04-02T00:19:59.662Z,14.20
2023-04-02T00:22:31.738Z,13.75
2023-04-02T00:25:06.826Z,14.38
2023-04-02T00:27:35.547Z,14.07
2023-04-02T00:30:08.870Z,15.35
2023-04-02T00:32:38.521Z,14.40
2023-04-02T00:36:44.205Z,18.05
2023-04-02T00:39:19.414Z,15.63
2023-04-02T00:41:58.821Z,15.00
2023-04-02T00:44:32.911Z,16.23
2023-04-02T00:47:09.337Z,15.98
2023-04-02T00:49:41.070Z,15.65
2023-04-02T00:52:14.423Z,15.88
2023-04-02T00:54:46.580Z,16.08
2023-04-02T00:57:18.633Z,16.10
2023-04-02T00:59:56.264Z,16.33
2023-04-02T01:02:28.834Z,15.95
2023-04-02T01:04:59.841Z,16.13
2023-04-02T01:07:59.387Z,14.77
2023-04-02T01:10:53.857Z,14.85
2023-04-02T01:13:32.049Z,15.68
2023-04-02T01:16:07.496Z,16.40
2023-04-02T01:18:46.871Z,16.30
2023-04-02T01:21:31.043Z,15.05
2023-04-02T01:24:05.781Z,15.57
2023-04-02T01:26:54.728Z,14.45
2023-04-02T01:29:28.831Z,15.25
2023-04-02T01:32:00.511Z,15.77
2023-04-02T01:34:30.181Z,15.85
2023-04-02T01:37:34.971Z,15.63
2023-04-02T01:40:34.996Z,15.63
2023-04-02T01:43:16.949Z,15.35
2023-04-02T01:45:47.008Z,14.43
2023-04-02T01:48:18.234Z,14.50
2023-04-02T01:50:49.978Z,15.95
2023-04-02T01:53:20.385Z,14.95
2023-04-02T01:55:52.624Z,13.85
2023-04-02T01:58:25.671Z,15.63
2023-04-02T02:03:27.985Z,16.13
2023-04-02T02:05:57.419Z,15.82
2023-04-02T02:08:38.448Z,14.63
2023-04-02T02:11:13.117Z,15.20
2023-04-02T02:13:42.305Z,14.82
2023-04-02T02:16:19.089Z,16.33
2023-04-02T02:18:51.824Z,15.30
2023-04-02T02:21:33.449Z,14.77
2023-04-02T02:24:04.956Z,14.18
2023-04-02T02:26:36.057Z,14.98
2023-04-02T02:29:07.769Z,14.45
2023-04-02T02:31:42.149Z,14.50
2023-04-02T02:34:19.462Z,14.90
2023-04-02T02:36:55.392Z,15.75
2023-04-02T02:39:29.121Z,14.07
2023-04-02T02:42:02.338Z,14.73
2023-04-02T02:44:36.100Z,13.20
2023-04-02T02:47:13.112Z,13.15
2023-04-02T02:49:44.614Z,14.02
2023-04-02T02:52:18.695Z,13.52
2023-04-02T02:54:59.467Z,13.00
2023-04-02T02:57:35.279Z,13.05
2023-04-02T03:00:09.762Z,12.48
2023-04-02T03:02:43.421Z,12.48
2023-04-02T03:05:19.346Z,13.45
2023-04-02T03:07:50.190Z,13.20
2023-04-02T03:10:24.238Z,13.27
2023-04-02T03:13:01.223Z,12.52
2023-04-02T03:15:36.741Z,12.82
2023-04-02T03:18:12.384Z,12.80
2023-04-02T03:20:48.818Z,12.77
2023-04-02T03:23:23.440Z,12.07
2023-04-02T03:25:57.621Z,12.75
2023-04-02T03:28:30.508Z,13.63
2023-04-02T03:31:04.329Z,12.52
2023-04-02T03:33:36.967Z,12.10
2023-04-02T03:36:19.050Z,12.65
2023-04-02T03:38:53.258Z,11.48
2023-04-02T03:41:27.211Z,19.90
2023-04-02T03:44:01.412Z,12.10
2023-04-02T03:46:35.151Z,14.82
2023-04-02T03:49:08.055Z,12.65
2023-04-02T03:51:40.847Z,11.45
2023-04-02T03:54:16.618Z,11.25
2023-04-02T03:56:47.786Z,11.90
2023-04-02T03:59:32.103Z,11.43
2023-04-02T04:02:07.659Z,11.70
2023-04-02T04:04:42.211Z,10.80
2023-04-02T04:07:20.289Z,11.25
2023-04-02T04:09:52.351Z,10.98
2023-04-02T04:12:29.967Z,11.65
2023-04-02T04:15:04.815Z,12.20
2023-04-02T04:17:50.145Z,11.00
2023-04-02T04:20:25.387Z,16.35
2023-04-02T04:22:56.111Z,11.77
2023-04-02T04:25:34.048Z,11.25
2023-04-02T04:28:21.570Z,12.02
2023-04-02T04:30:54.847Z,10.73
2023-04-02T04:36:01.395Z,10.75
2023-04-02T04:38:39.249Z,11.30
2023-04-02T04:41:15.799Z,11.27
2023-04-02T04:43:53.581Z,10.68
2023-04-02T04:46:29.658Z,10.73
2023-04-02T04:49:04.210Z,11.63
2023-04-02T04:51:42.654Z,10.07
2023-04-02T04:54:14.671Z,10.80
2023-04-02T04:56:50.433Z,9.85
2023-04-02T04:59:25.009Z,10.52
2023-04-02T05:02:02.390Z,10.27
2023-04-02T05:04:35.780Z,13.07
2023-04-02T05:07:11.744Z,11.43
2023-04-02T05:09:44.081Z,10.02
2023-04-02T05:12:23.002Z,9.95
2023-04-02T05:14:57.896Z,10.25
2023-04-02T05:17:32.873Z,10.02
2023-04-02T05:20:09.877Z,10.77
2023-04-02T05:22:48.674Z,9.35
2023-04-02T05:25:24.009Z,10.45
2023-04-02T05:27:59.843Z,10.63
2023-04-02T05:30:52.753Z,10.02
2023-04-02T05:33:27.225Z,9.80
2023-04-02T05:36:04.603Z,11.30
2023-04-02T05:38:41.331Z,10.88
2023-04-02T05:41:19.992Z,10.55
2023-04-02T05:43:52.522Z,11.00
2023-04-02T05:46:28.556Z,11.57
2023-04-02T05:48:59.925Z,16.33
2023-04-02T05:51:38.061Z,11.90
2023-04-02T05:54:23.298Z,11.05
2023-04-02T05:57:01.972Z,12.43
2023-04-02T05:59:33.940Z,12.00
2023-04-02T06:02:07.599Z,12.68
2023-04-02T06:04:47.458Z,11.95
2023-04-02T06:07:22.444Z,10.35
2023-04-02T06:10:06.913Z,11.68
2023-04-02T06:12:44.552Z,12.05
2023-04-02T06:15:15.612Z,11.93
2023-04-02T06:17:49.011Z,12.23
2023-04-02T06:20:19.163Z,12.85
2023-04-02T06:22:52.615Z,11.25
2023-04-02T06:25:27.214Z,11.98
2023-04-02T06:28:00.009Z,13.40
2023-04-02T06:30:33.851Z,15.45
2023-04-02T06:33:03.704Z,12.68
2023-04-02T06:35:35.860Z,12.13
2023-04-02T06:38:08.187Z,11.98
2023-04-02T06:40:47.709Z,12.85
2023-04-02T06:43:44.623Z,11.75
2023-04-02T06:46:37.703Z,12.40
2023-04-02T06:49:19.942Z,11.95
2023-04-02T06:51:53.070Z,11.95
2023-04-02T06:54:22.303Z,11.52
2023-04-02T06:56:57.737Z,12.27
2023-04-02T06:59:30.712Z,12.23
2023-04-02T07:02:03.775Z,11.55
2023-04-02T07:07:01.841Z,11.43
2023-04-02T07:09:34.581Z,11.82
2023-04-02T07:12:13.760Z,12.27
2023-04-02T07:14:43.984Z,12.40
2023-04-02T07:17:17.057Z,16.67
2023-04-02T07:19:49.725Z,12.88
2023-04-02T07:22:22.253Z,12.52
2023-04-02T07:24:58.845Z,12.18
2023-04-02T07:27:28.838Z,13.20
2023-04-02T07:29:57.854Z,12.40
2023-04-02T07:32:26.647Z,12.98
2023-04-02T07:34:55.510Z,12.32
2023-04-02T07:37:24.006Z,11.07
2023-04-02T07:39:53.092Z,12.35
2023-04-02T07:42:23.973Z,12.68
2023-04-02T07:44:53.896Z,14.32
2023-04-02T07:47:22.835Z,12.40
2023-04-02T07:49:55.264Z,12.88
2023-04-02T07:52:23.700Z,12.32
2023-04-02T07:54:52.867Z,12.60
2023-04-02T07:57:21.335Z,13.63
2023-04-02T07:59:49.854Z,12.90
2023-04-02T08:02:22.218Z,12.80
2023-04-02T08:04:51.852Z,12.77
2023-04-02T08:07:20.765Z,12.70
2023-04-02T08:09:49.682Z,13.25
2023-04-02T08:12:20.489Z,14.57
2023-04-02T08:14:50.229Z,13.05
2023-04-02T08:17:18.726Z,14.52
2023-04-02T08:19:55.077Z,14.02
2023-04-02T08:22:23.859Z,13.90
2023-04-02T08:24:52.478Z,14.35
2023-04-02T08:27:20.915Z,14.07
2023-04-02T08:29:49.316Z,14.15
2023-04-02T08:32:17.990Z,14.10
2023-04-02T08:34:48.227Z,13.93
2023-04-02T08:37:16.776Z,13.88
2023-04-02T08:39:45.618Z,15.57
2023-04-02T08:42:24.035Z,14.35
2023-04-02T08:45:23.039Z,13.80
2023-04-02T08:47:57.504Z,15.02
2023-04-02T08:50:32.328Z,14.25
2023-04-02T08:53:03.868Z,13.27
2023-04-02T08:55:39.987Z,12.75
2023-04-02T08:58:21.547Z,12.73
2023-04-02T09:00:54.917Z,14.93
2023-04-02T09:03:29.423Z,14.68
2023-04-02T09:06:01.088Z,14.75
2023-04-02T09:08:32.341Z,14.00
2023-04-02T09:11:07.501Z,14.40
2023-04-02T09:13:41.072Z,14.82
2023-04-02T09:16:14.728Z,14.68
2023-04-02T09:18:45.735Z,16.77
2023-04-02T09:21:31.602Z,14.73
2023-04-02T09:24:00.121Z,14.77
2023-04-02T09:26:32.213Z,15.90
2023-04-02T09:29:25.593Z,15.00
2023-04-02T09:32:00.918Z,14.68
2023-04-02T09:34:31.050Z,15.05
2023-04-02T09:37:09.820Z,13.38
2023-04-02T09:39:38.288Z,14.68
2023-04-02T09:42:29.668Z,14.18
2023-04-02T09:45:15.709Z,14.07
2023-04-02T09:47:44.484Z,13.60
2023-04-02T09:50:26.841Z,13.52
2023-04-02T09:52:57.047Z,12.52
2023-04-02T09:55:29.005Z,12.68
2023-04-02T09:58:16.169Z,12.60
2023-04-02T10:00:52.173Z,13.65
2023-04-02T10:03:26.190Z,13.82
2023-04-02T10:06:14.103Z,14.65
2023-04-02T10:08:45.879Z,12.32
2023-04-02T10:11:18.429Z,12.50
2023-04-02T10:13:53.459Z,11.65
2023-04-02T10:16:27.702Z,12.27
2023-04-02T10:21:29.765Z,11.48
2023-04-02T10:24:00.213Z,11.32
2023-04-02T10:26:53.909Z,10.95
2023-04-02T10:29:37.638Z,11.55
2023-04-02T10:32:12.549Z,11.23
2023-04-02T10:34:49.687Z,11.15
2023-04-02T10:38:01.334Z,11.60
2023-04-02T10:43:32.773Z,11.10
2023-04-02T10:46:03.723Z,11.80
2023-04-02T10:48:41.632Z,12.52
2023-04-02T10:51:18.034Z,13.30
2023-04-02T10:53:58.410Z,10.80
2023-04-02T10:56:37.774Z,12.23
2023-04-02T10:59:20.794Z,11.07
2023-04-02T11:01:51.653Z,11.18
2023-04-02T11:04:25.608Z,11.10
2023-04-02T11:09:43.056Z,11.23
2023-04-02T11:12:22.997Z,10.45
2023-04-02T11:14:52.949Z,11.48
2023-04-02T11:17:26.254Z,10.60
2023-04-02T11:19:56.244Z,11.07
2023-04-02T11:22:25.832Z,11.05
2023-04-02T11:24:55.865Z,11.68
2023-04-02T11:27:30.965Z,11.15
2023-04-02T11:30:06.768Z,11.70
2023-04-02T11:32:39.547Z,10.93
2023-04-02T11:35:43.165Z,11.13
2023-04-02T11:38:52.243Z,14.48
2023-04-02T11:42:03.565Z,13.32
2023-04-02T11:44:33.921Z,12.23
2023-04-02T11:47:20.296Z,11.40
2023-04-02T11:50:07.689Z,11.88
2023-04-02T11:52:40.477Z,9.70
2023-04-02T11:55:33.848Z,10.98
2023-04-02T11:58:32.412Z,11.82
2023-04-02T12:01:38.560Z,11.57
2023-04-02T12:04:39.946Z,13.40
2023-04-02T12:07:26.864Z,11.13
2023-04-02T12:09:58.568Z,11.25
2023-04-02T12:12:30.216Z,11.88
2023-04-02T12:14:59.892Z,12.27
2023-04-02T12:17:33.956Z,11.55
2023-04-02T12:20:08.448Z,12.65
2023-04-02T12:22:40.333Z,12.35
2023-04-02T12:25:24.570Z,11.50
2023-04-02T12:28:05.521Z,11.73
2023-04-02T12:30:34.200Z,11.95
2023-04-02T12:33:18.958Z,11.23
2023-04-02T12:35:49.126Z,10.57
2023-04-02T12:38:23.395Z,11.43
2023-04-02T12:40:55.668Z,12.65
2023-04-02T12:43:25.719Z,11.25
2023-04-02T12:45:56.027Z,11.77
2023-04-02T12:48:27.103Z,11.60
2023-04-02T12:50:56.737Z,12.27
2023-04-02T12:53:30.321Z,10.38
2023-04-02T12:55:59.898Z,10.20
2023-04-02T12:58:40.392Z,10.25
2023-04-02T13:01:14.931Z,16.00
2023-04-02T13:03:44.833Z,11.40
2023-04-02T13:06:26.605Z,12.32
2023-04-02T13:08:56.170Z,11.55
2023-04-02T13:11:34.731Z,13.38
2023-04-02T13:14:05.263Z,10.55
2023-04-02T13:16:39.152Z,11.65
2023-04-02T13:19:26.701Z,12.00
2023-04-02T13:21:55.997Z,11.57
2023-04-02T13:24:29.203Z,10.70
2023-04-02T13:26:59.874Z,11.20
2023-04-02T13:29:33.059Z,11.43
2023-04-02T13:32:03.208Z,10.23
2023-04-02T13:34:33.197Z,10.93
2023-04-02T13:37:02.128Z,12.50
2023-04-02T13:39:31.634Z,13.77
2023-04-02T13:42:02.537Z,11.65
2023-04-02T13:44:37.178Z,11.70
2023-04-02T13:47:05.759Z,12.07
2023-04-02T13:49:36.001Z,11.68
2023-04-02T13:52:07.401Z,11.65
2023-04-02T13:54:44.534Z,11.85
2023-04-02T13:57:13.098Z,11.13
2023-04-02T13:59:47.661Z,11.48
2023-04-02T14:02:20.184Z,11.43
2023-04-02T14:04:52.172Z,11.18
2023-04-02T14:07:42.708Z,11.52
2023-04-02T14:10:22.253Z,11.63
2023-04-02T14:13:07.389Z,11.88
2023-04-02T14:15:59.267Z,11.30
2023-04-02T14:18:45.247Z,11.55
2023-04-02T14:21:25.612Z,11.27
2023-04-02T14:24:08.207Z,13.50
2023-04-02T14:26:49.618Z,10.57
2023-04-02T14:29:29.458Z,10.75
2023-04-02T14:32:08.441Z,11.00
2023-04-02T14:34:45.430Z,11.40
2023-04-02T14:37:22.164Z,11.07
2023-04-02T14:40:03.725Z,10.90
2023-04-02T14:42:43.581Z,10.57
2023-04-02T14:45:21.615Z,9.70
2023-04-02T14:47:56.128Z,11.90
2023-04-02T14:50:29.870Z,10.27
2023-04-02T14:53:09.591Z,9.48
2023-04-02T14:55:43.852Z,11.25
2023-04-02T14:58:20.533Z,12.50
2023-04-02T15:00:57.506Z,11.40
2023-04-02T15:03:30.802Z,9.27
2023-04-02T15:06:04.721Z,8.90
2023-04-02T15:08:38.871Z,9.85
2023-04-02T15:11:13.398Z,8.48
2023-04-02T15:13:48.171Z,8.77
2023-04-02T15:16:20.887Z,8.93
2023-04-02T15:18:53.154Z,9.65
2023-04-02T15:21:55.899Z,8.07
2023-04-02T15:24:39.840Z,9.02
2023-04-02T15:27:25.591Z,9.80
2023-04-02T15:32:36.646Z,8.70
2023-04-02T15:37:50.483Z,8.88
2023-04-02T15:40:41.577Z,9.23
2023-04-02T15:43:20.902Z,8.70
2023-04-02T15:46:21.449Z,8.82
2023-04-02T15:49:06.645Z,9.20
2023-04-02T15:51:42.886Z,8.80
2023-04-02T15:54:31.271Z,8.80
2023-04-02T15:57:17.373Z,7.65
2023-04-02T16:00:18.540Z,7.18
2023-04-02T16:03:25.433Z,8.60
2023-04-02T16:06:19.071Z,7.78
2023-04-02T16:09:03.283Z,7.88
2023-04-02T16:11:31.739Z,8.38
2023-04-02T16:14:13.696Z,8.10
2023-04-02T16:16:44.908Z,8.20
2023-04-02T16:19:18.993Z,7.97
2023-04-02T16:21:54.555Z,7.50
2023-04-02T16:24:23.642Z,8.95
2023-04-02T16:26:59.706Z,8.68
2023-04-02T16:29:53.953Z,8.50
2023-04-02T16:32:41.278Z,7.22
2023-04-02T16:35:41.834Z,7.75
2023-04-02T16:38:23.883Z,8.05
2023-04-02T16:41:08.488Z,8.25
2023-04-02T16:43:48.415Z,8.68
2023-04-02T16:46:38.177Z,8.07
2023-04-02T16:49:20.567Z,8.43
2023-04-02T16:52:00.932Z,8.90
2023-04-02T16:54:34.297Z,8.23
2023-04-02T16:57:19.973Z,7.53
2023-04-02T16:59:58.450Z,9.38
2023-04-02T17:02:42.546Z,9.07
2023-04-02T17:05:25.891Z,7.30
2023-04-02T17:08:04.366Z,8.20
2023-04-02T17:10:34.368Z,7.50
2023-04-02T17:13:14.212Z,8.70
2023-04-02T17:15:44.381Z,8.55
2023-04-02T17:18:20.154Z,7.82
2023-04-02T17:20:49.663Z,7.68
2023-04-02T17:23:22.706Z,8.13
2023-04-02T17:25:57.323Z,8.15
2023-04-02T17:28:36.995Z,10.32
2023-04-02T17:33:37.452Z,9.30
2023-04-02T17:36:39.480Z,7.85
2023-04-02T17:39:19.492Z,8.30
2023-04-02T17:41:53.585Z,9.00
2023-04-02T17:44:38.395Z,7.82
2023-04-02T17:47:16.350Z,8.75
2023-04-02T17:50:00.338Z,6.97
2023-04-02T17:52:35.887Z,8.05
2023-04-02T17:55:17.383Z,7.80
2023-04-02T17:58:03.524Z,8.30
2023-04-02T18:00:58.661Z,8.00
2023-04-02T18:03:56.664Z,8.40
2023-04-02T18:06:33.134Z,7.32
2023-04-02T18:09:15.847Z,7.63
2023-04-02T18:11:52.369Z,7.60
2023-04-02T18:14:42.192Z,7.72
2023-04-02T18:17:18.772Z,7.93
2023-04-02T18:19:56.322Z,7.93
2023-04-02T18:22:37.573Z,7.82
2023-04-02T18:25:33.087Z,8.10
2023-04-02T18:28:17.280Z,8.25
2023-04-02T18:30:51.399Z,10.98
2023-04-02T18:33:44.356Z,9.95
2023-04-02T18:36:21.224Z,8.73
2023-04-02T18:39:00.123Z,8.55
2023-04-02T18:41:43.878Z,8.73
2023-04-02T18:44:38.828Z,7.85
2023-04-02T18:47:18.162Z,8.02
2023-04-02T18:49:54.300Z,8.93
2023-04-02T18:52:25.359Z,8.63
2023-04-02T18:55:01.169Z,7.90
2023-04-02T18:57:36.684Z,7.18
2023-04-02T19:00:26.728Z,8.48
2023-04-02T19:02:59.167Z,8.85
2023-04-02T19:05:48.298Z,8.65
2023-04-02T19:08:36.304Z,7.32
2023-04-02T19:13:39.141Z,8.38
2023-04-02T19:16:39.339Z,7.65
2023-04-02T19:19:19.138Z,7.82
2023-04-02T19:22:03.351Z,8.10
2023-04-02T19:24:51.540Z,7.82
2023-04-02T19:27:33.194Z,7.65
2023-04-02T19:30:20.351Z,6.90
2023-04-02T19:33:00.923Z,7.35
2023-04-02T19:35:37.129Z,7.90
2023-04-02T19:38:17.269Z,8.02
2023-04-02T19:43:20.224Z,7.43
2023-04-02T19:45:49.651Z,8.15
2023-04-02T19:48:22.391Z,7.20
2023-04-02T19:50:51.406Z,8.20
2023-04-02T19:53:21.343Z,7.25
2023-04-02T19:55:51.928Z,7.45
2023-04-02T19:58:29.439Z,7.07
2023-04-02T20:00:59.925Z,8.18
2023-04-02T20:03:28.622Z,8.63
2023-04-02T20:05:59.641Z,7.88
2023-04-02T20:08:29.688Z,8.07
2023-04-02T20:11:00.630Z,7.57
2023-04-02T20:13:30.568Z,7.30
2023-04-02T20:16:01.690Z,6.63
2023-04-02T20:18:30.730Z,7.22
2023-04-02T20:20:59.304Z,7.63
2023-04-02T20:23:29.109Z,7.70
2023-04-02T20:25:58.632Z,7.80
2023-04-02T20:28:28.457Z,7.50
2023-04-02T20:31:11.791Z,7.53
2023-04-02T20:33:41.128Z,7.30
2023-04-02T20:36:15.885Z,7.03
2023-04-02T20:38:46.120Z,8.18
2023-04-02T20:41:15.800Z,6.90
2023-04-02T20:43:46.427Z,6.80
2023-04-02T20:46:17.449Z,7.22
2023-04-02T20:48:48.274Z,7.40
2023-04-02T20:51:20.862Z,7.93
2023-04-02T20:53:53.848Z,8.02
2023-04-02T20:56:24.723Z,7.45
2023-04-02T20:58:53.450Z,7.65
2023-04-02T21:01:25.021Z,7.47
2023-04-02T21:03:56.274Z,8.07
2023-04-02T21:06:28.667Z,7.03
2023-04-02T21:08:57.943Z,6.60
2023-04-02T21:11:26.899Z,6.85
2023-04-02T21:13:55.647Z,7.40
2023-04-02T21:16:28.833Z,7.10
2023-04-02T21:19:00.164Z,7.47
2023-04-02T21:21:30.876Z,7.20
2023-04-02T21:24:01.442Z,6.47
2023-04-02T21:26:33.302Z,7.22
2023-04-02T21:29:03.667Z,6.63
2023-04-02T21:31:37.039Z,7.20
2023-04-02T21:34:06.790Z,7.45
2023-04-02T21:36:37.650Z,7.30
2023-04-02T21:39:12.299Z,7.43
2023-04-02T21:41:45.043Z,7.15
2023-04-02T21:44:18.160Z,7.40
2023-04-02T21:46:50.423Z,7.00
2023-04-02T21:49:23.220Z,7.30
2023-04-02T21:51:52.724Z,6.50
2023-04-02T21:54:23.771Z,6.82
2023-04-02T21:56:53.413Z,7.03
2023-04-02T21:59:22.208Z,6.25
2023-04-02T22:01:55.473Z,6.97
2023-04-02T22:04:26.200Z,6.38
2023-04-02T22:06:56.800Z,6.82
2023-04-02T22:09:27.883Z,6.10
2023-04-02T22:11:59.953Z,5.90
2023-04-02T22:14:31.307Z,6.72
2023-04-02T22:17:05.091Z,6.72
2023-04-02T22:19:34.237Z,6.57
2023-04-02T22:22:02.726Z,6.32
2023-04-02T22:24:31.481Z,6.38
2023-04-02T22:27:00.054Z,7.15
2023-04-02T22:29:28.755Z,7.72
2023-04-02T22:31:57.225Z,6.93
2023-04-02T22:34:28.149Z,7.05
2023-04-02T22:36:57.074Z,8.82
2023-04-02T22:39:25.738Z,7.80
2023-04-02T22:41:54.332Z,8.18
2023-04-02T22:44:24.268Z,8.25
2023-04-02T22:46:53.024Z,8.18
2023-04-02T22:49:21.558Z,8.27
2023-04-02T22:51:53.427Z,7.93
2023-04-02T22:54:21.938Z,8.65
2023-04-02T22:56:50.354Z,9.15
2023-04-02T22:59:19.230Z,8.48
2023-04-02T23:01:47.714Z,8.95
2023-04-02T23:04:16.132Z,8.57
2023-04-02T23:06:45.076Z,9.05
2023-04-02T23:09:14.870Z,9.25
2023-04-02T23:11:43.340Z,8.93
2023-04-02T23:14:11.723Z,12.15
2023-04-02T23:16:40.257Z,12.55
2023-04-02T23:19:08.688Z,10.80
2023-04-02T23:21:37.169Z,9.35
2023-04-02T23:24:05.999Z,10.25
2023-04-02T23:26:35.835Z,12.52
2023-04-02T23:29:06.420Z,9.52
2023-04-02T23:31:34.882Z,10.18
2023-04-02T23:34:03.306Z,9.55
2023-04-02T23:36:33.452Z,9.23
2023-04-02T23:39:04.234Z,8.88
2023-04-02T23:41:32.846Z,9.35
2023-04-02T23:44:03.145Z,9.60
2023-04-02T23:46:32.117Z,10.98
2023-04-02T23:49:01.807Z,12.48
2023-04-02T23:51:31.975Z,15.25
2023-04-02T23:54:00.981Z,16.08
2023-04-02T23:56:29.645Z,14.77
2023-04-02T23:58:58.103Z,14.10
